sensor_id;sensor_type;location;lat;lon;timestamp;temperature;humidity
69335;SHT31;56477;52.742;15.242;2023-03-03T00:00:46;-1.21;99.99
69335;SHT31;56477;52.742;15.242;2023-03-03T00:03:20;-1.30;99.99
69335;SHT31;56477;52.742;15.242;2023-03-03T00:05:47;-1.31;99.99
69335;SHT31;56477;52.742;15.242;2023-03-03T00:08:14;-1.27;99.99
69335;SHT31;56477;52.742;15.242;2023-03-03T00:10:40;-1.24;99.99
69335;SHT31;56477;52.742;15.242;2023-03-03T00:13:22;-1.27;99.99
69335;SHT31;56477;52.742;15.242;2023-03-03T00:15:48;-1.32;99.99
69335;SHT31;56477;52.742;15.242;2023-03-03T00:18:35;-1.35;99.99
69335;SHT31;56477;52.742;15.242;2023-03-03T00:21:02;-1.37;99.99
69335;SHT31;56477;52.742;15.242;2023-03-03T00:23:37;-1.38;99.99
69335;SHT31;56477;52.742;15.242;2023-03-03T00:26:45;-1.31;99.99
69335;SHT31;56477;52.742;15.242;2023-03-03T00:29:56;-1.21;99.99
69335;SHT31;56477;52.742;15.242;2023-03-03T00:32:22;-1.27;99.99
69335;SHT31;56477;52.742;15.242;2023-03-03T00:34:50;-1.31;99.99
69335;SHT31;56477;52.742;15.242;2023-03-03T00:39:48;-1.31;99.99
69335;SHT31;56477;52.742;15.242;2023-03-03T00:42:16;-1.31;99.99
69335;SHT31;56477;52.742;15.242;2023-03-03T00:44:43;-1.31;99.99
69335;SHT31;56477;52.742;15.242;2023-03-03T00:47:40;-1.25;99.99
69335;SHT31;56477;52.742;15.242;2023-03-03T00:52:39;-1.25;99.99
69335;SHT31;56477;52.742;15.242;2023-03-03T00:55:06;-1.24;99.99
69335;SHT31;56477;52.742;15.242;2023-03-03T00:57:32;-1.22;99.99
69335;SHT31;56477;52.742;15.242;2023-03-03T00:59:59;-1.28;99.99
69335;SHT31;56477;52.742;15.242;2023-03-03T01:02:25;-1.20;99.99
69335;SHT31;56477;52.742;15.242;2023-03-03T01:04:52;-1.22;99.99
69335;SHT31;56477;52.742;15.242;2023-03-03T01:07:21;-1.30;99.99
69335;SHT31;56477;52.742;15.242;2023-03-03T01:09:48;-1.25;99.99
69335;SHT31;56477;52.742;15.242;2023-03-03T01:12:14;-1.32;99.99
69335;SHT31;56477;52.742;15.242;2023-03-03T01:14:40;-1.31;99.99
69335;SHT31;56477;52.742;15.242;2023-03-03T01:17:07;-1.31;99.99
69335;SHT31;56477;52.742;15.242;2023-03-03T01:19:33;-1.31;99.99
69335;SHT31;56477;52.742;15.242;2023-03-03T01:22:00;-1.21;99.99
69335;SHT31;56477;52.742;15.242;2023-03-03T01:24:26;-1.21;99.99
69335;SHT31;56477;52.742;15.242;2023-03-03T01:26:52;-1.28;99.99
69335;SHT31;56477;52.742;15.242;2023-03-03T01:29:18;-1.27;99.99
69335;SHT31;56477;52.742;15.242;2023-03-03T01:31:44;-1.28;99.99
69335;SHT31;56477;52.742;15.242;2023-03-03T01:34:10;-1.24;99.99
69335;SHT31;56477;52.742;15.242;2023-03-03T01:36:36;-1.20;99.99
69335;SHT31;56477;52.742;15.242;2023-03-03T01:39:02;-1.15;99.99
69335;SHT31;56477;52.742;15.242;2023-03-03T01:41:29;-1.10;99.99
69335;SHT31;56477;52.742;15.242;2023-03-03T01:43:59;-1.12;99.99
69335;SHT31;56477;52.742;15.242;2023-03-03T01:46:43;-1.08;99.99
69335;SHT31;56477;52.742;15.242;2023-03-03T01:49:27;-1.05;99.99
69335;SHT31;56477;52.742;15.242;2023-03-03T01:52:00;-1.05;99.99
69335;SHT31;56477;52.742;15.242;2023-03-03T01:54:30;-0.97;99.99
69335;SHT31;56477;52.742;15.242;2023-03-03T01:57:00;-0.93;99.99
69335;SHT31;56477;52.742;15.242;2023-03-03T01:59:33;-1.01;99.99
69335;SHT31;56477;52.742;15.242;2023-03-03T02:02:01;-1.03;99.99
69335;SHT31;56477;52.742;15.242;2023-03-03T02:04:27;-1.07;99.99
69335;SHT31;56477;52.742;15.242;2023-03-03T02:06:57;-1.01;99.99
69335;SHT31;56477;52.742;15.242;2023-03-03T02:12:15;-0.97;99.99
69335;SHT31;56477;52.742;15.242;2023-03-03T02:14:42;-1.15;99.99
69335;SHT31;56477;52.742;15.242;2023-03-03T02:17:07;-1.12;99.99
69335;SHT31;56477;52.742;15.242;2023-03-03T02:20:06;-1.15;99.99
69335;SHT31;56477;52.742;15.242;2023-03-03T02:22:42;-1.18;99.99
69335;SHT31;56477;52.742;15.242;2023-03-03T02:25:14;-1.17;99.99
69335;SHT31;56477;52.742;15.242;2023-03-03T02:27:43;-1.17;99.99
69335;SHT31;56477;52.742;15.242;2023-03-03T02:30:19;-1.17;99.99
69335;SHT31;56477;52.742;15.242;2023-03-03T02:32:45;-1.10;99.99
69335;SHT31;56477;52.742;15.242;2023-03-03T02:35:31;-1.08;99.99
69335;SHT31;56477;52.742;15.242;2023-03-03T02:40:36;-1.01;99.99
69335;SHT31;56477;52.742;15.242;2023-03-03T02:43:05;-1.05;99.99
69335;SHT31;56477;52.742;15.242;2023-03-03T02:45:32;-1.05;99.99
69335;SHT31;56477;52.742;15.242;2023-03-03T02:47:57;-1.10;99.99
69335;SHT31;56477;52.742;15.242;2023-03-03T02:50:24;-1.05;99.99
69335;SHT31;56477;52.742;15.242;2023-03-03T02:52:49;-1.03;99.99
69335;SHT31;56477;52.742;15.242;2023-03-03T02:55:16;-1.04;99.99
69335;SHT31;56477;52.742;15.242;2023-03-03T02:57:41;-1.04;99.99
69335;SHT31;56477;52.742;15.242;2023-03-03T03:00:08;-1.07;99.99
69335;SHT31;56477;52.742;15.242;2023-03-03T03:02:34;-1.11;99.99
69335;SHT31;56477;52.742;15.242;2023-03-03T03:05:00;-1.15;99.99
69335;SHT31;56477;52.742;15.242;2023-03-03T03:07:26;-1.15;99.99
69335;SHT31;56477;52.742;15.242;2023-03-03T03:09:52;-1.21;99.99
69335;SHT31;56477;52.742;15.242;2023-03-03T03:12:19;-1.18;99.99
69335;SHT31;56477;52.742;15.242;2023-03-03T03:14:46;-1.14;99.99
69335;SHT31;56477;52.742;15.242;2023-03-03T03:17:12;-1.07;99.99
69335;SHT31;56477;52.742;15.242;2023-03-03T03:19:38;-1.05;99.99
69335;SHT31;56477;52.742;15.242;2023-03-03T03:22:04;-1.03;99.99
69335;SHT31;56477;52.742;15.242;2023-03-03T03:24:30;-1.00;99.99
69335;SHT31;56477;52.742;15.242;2023-03-03T03:26:56;-1.03;99.99
69335;SHT31;56477;52.742;15.242;2023-03-03T03:29:22;-1.00;99.99
69335;SHT31;56477;52.742;15.242;2023-03-03T03:31:48;-0.97;99.99
69335;SHT31;56477;52.742;15.242;2023-03-03T03:34:14;-0.96;99.99
69335;SHT31;56477;52.742;15.242;2023-03-03T03:36:40;-1.05;99.99
69335;SHT31;56477;52.742;15.242;2023-03-03T03:39:08;-1.01;99.99
69335;SHT31;56477;52.742;15.242;2023-03-03T03:41:33;-1.01;99.99
69335;SHT31;56477;52.742;15.242;2023-03-03T03:44:00;-1.10;99.99
69335;SHT31;56477;52.742;15.242;2023-03-03T03:46:25;-1.05;99.99
69335;SHT31;56477;52.742;15.242;2023-03-03T03:48:51;-1.05;99.99
69335;SHT31;56477;52.742;15.242;2023-03-03T03:51:17;-1.03;99.99
69335;SHT31;56477;52.742;15.242;2023-03-03T03:53:44;-1.03;99.99
69335;SHT31;56477;52.742;15.242;2023-03-03T03:56:10;-1.07;99.99
69335;SHT31;56477;52.742;15.242;2023-03-03T03:58:36;-1.11;99.99
69335;SHT31;56477;52.742;15.242;2023-03-03T04:01:04;-1.14;99.99
69335;SHT31;56477;52.742;15.242;2023-03-03T04:03:30;-1.10;99.99
69335;SHT31;56477;52.742;15.242;2023-03-03T04:05:56;-1.10;99.99
69335;SHT31;56477;52.742;15.242;2023-03-03T04:08:22;-1.08;99.99
69335;SHT31;56477;52.742;15.242;2023-03-03T04:10:48;-1.05;99.99
69335;SHT31;56477;52.742;15.242;2023-03-03T04:13:14;-1.05;99.99
69335;SHT31;56477;52.742;15.242;2023-03-03T04:15:40;-1.11;99.99
69335;SHT31;56477;52.742;15.242;2023-03-03T04:18:07;-1.08;99.99
69335;SHT31;56477;52.742;15.242;2023-03-03T04:20:33;-1.15;99.99
69335;SHT31;56477;52.742;15.242;2023-03-03T04:22:59;-1.11;99.99
69335;SHT31;56477;52.742;15.242;2023-03-03T04:25:25;-1.12;99.99
69335;SHT31;56477;52.742;15.242;2023-03-03T04:27:51;-1.14;99.99
69335;SHT31;56477;52.742;15.242;2023-03-03T04:30:18;-1.10;99.99
69335;SHT31;56477;52.742;15.242;2023-03-03T04:32:45;-1.15;99.99
69335;SHT31;56477;52.742;15.242;2023-03-03T04:35:10;-1.12;99.99
69335;SHT31;56477;52.742;15.242;2023-03-03T04:37:37;-1.15;99.99
69335;SHT31;56477;52.742;15.242;2023-03-03T04:40:07;-1.15;99.99
69335;SHT31;56477;52.742;15.242;2023-03-03T04:42:34;-1.11;99.99
69335;SHT31;56477;52.742;15.242;2023-03-03T04:45:00;-1.11;99.99
69335;SHT31;56477;52.742;15.242;2023-03-03T04:47:26;-1.18;99.99
69335;SHT31;56477;52.742;15.242;2023-03-03T04:49:52;-1.20;99.99
69335;SHT31;56477;52.742;15.242;2023-03-03T04:52:18;-1.20;99.99
69335;SHT31;56477;52.742;15.242;2023-03-03T04:54:44;-1.20;99.99
69335;SHT31;56477;52.742;15.242;2023-03-03T04:57:10;-1.21;99.99
69335;SHT31;56477;52.742;15.242;2023-03-03T04:59:36;-1.20;99.99
69335;SHT31;56477;52.742;15.242;2023-03-03T05:02:02;-1.21;99.99
69335;SHT31;56477;52.742;15.242;2023-03-03T05:04:30;-1.17;99.99
69335;SHT31;56477;52.742;15.242;2023-03-03T05:06:56;-1.27;99.99
69335;SHT31;56477;52.742;15.242;2023-03-03T05:09:22;-1.28;99.99
69335;SHT31;56477;52.742;15.242;2023-03-03T05:11:48;-1.32;99.99
69335;SHT31;56477;52.742;15.242;2023-03-03T05:14:14;-1.31;99.99
69335;SHT31;56477;52.742;15.242;2023-03-03T05:16:40;-1.30;99.99
69335;SHT31;56477;52.742;15.242;2023-03-03T05:19:06;-1.24;99.99
69335;SHT31;56477;52.742;15.242;2023-03-03T05:21:32;-1.24;99.99
69335;SHT31;56477;52.742;15.242;2023-03-03T05:23:58;-1.22;99.99
69335;SHT31;56477;52.742;15.242;2023-03-03T05:26:24;-1.28;99.99
69335;SHT31;56477;52.742;15.242;2023-03-03T05:28:50;-1.28;99.99
69335;SHT31;56477;52.742;15.242;2023-03-03T05:31:16;-1.28;99.99
69335;SHT31;56477;52.742;15.242;2023-03-03T05:33:42;-1.27;99.99
69335;SHT31;56477;52.742;15.242;2023-03-03T05:36:08;-1.25;99.99
69335;SHT31;56477;52.742;15.242;2023-03-03T05:38:34;-1.31;99.99
69335;SHT31;56477;52.742;15.242;2023-03-03T05:41:00;-1.35;99.99
69335;SHT31;56477;52.742;15.242;2023-03-03T05:43:26;-1.37;99.99
69335;SHT31;56477;52.742;15.242;2023-03-03T05:45:54;-1.31;99.99
69335;SHT31;56477;52.742;15.242;2023-03-03T05:48:21;-1.31;99.99
69335;SHT31;56477;52.742;15.242;2023-03-03T05:50:47;-1.25;99.99
69335;SHT31;56477;52.742;15.242;2023-03-03T05:53:13;-1.31;99.99
69335;SHT31;56477;52.742;15.242;2023-03-03T05:55:39;-1.32;99.99
69335;SHT31;56477;52.742;15.242;2023-03-03T05:58:05;-1.32;99.99
69335;SHT31;56477;52.742;15.242;2023-03-03T06:00:31;-1.34;99.99
69335;SHT31;56477;52.742;15.242;2023-03-03T06:02:57;-1.38;99.99
69335;SHT31;56477;52.742;15.242;2023-03-03T06:05:24;-1.38;99.99
69335;SHT31;56477;52.742;15.242;2023-03-03T06:07:49;-1.31;99.99
69335;SHT31;56477;52.742;15.242;2023-03-03T06:10:16;-1.35;99.99
69335;SHT31;56477;52.742;15.242;2023-03-03T06:12:42;-1.30;99.99
69335;SHT31;56477;52.742;15.242;2023-03-03T06:15:09;-1.22;99.99
69335;SHT31;56477;52.742;15.242;2023-03-03T06:17:35;-1.21;99.99
69335;SHT31;56477;52.742;15.242;2023-03-03T06:20:01;-1.18;99.99
69335;SHT31;56477;52.742;15.242;2023-03-03T06:22:29;-1.24;99.99
69335;SHT31;56477;52.742;15.242;2023-03-03T06:24:55;-1.25;99.99
69335;SHT31;56477;52.742;15.242;2023-03-03T06:27:21;-1.28;99.99
69335;SHT31;56477;52.742;15.242;2023-03-03T06:29:47;-1.25;99.99
69335;SHT31;56477;52.742;15.242;2023-03-03T06:32:13;-1.18;99.99
69335;SHT31;56477;52.742;15.242;2023-03-03T06:34:39;-1.18;99.99
69335;SHT31;56477;52.742;15.242;2023-03-03T06:37:05;-1.22;99.99
69335;SHT31;56477;52.742;15.242;2023-03-03T06:39:32;-1.20;99.99
69335;SHT31;56477;52.742;15.242;2023-03-03T06:41:58;-1.22;99.99
69335;SHT31;56477;52.742;15.242;2023-03-03T06:44:24;-1.31;99.99
69335;SHT31;56477;52.742;15.242;2023-03-03T06:46:50;-1.37;99.99
69335;SHT31;56477;52.742;15.242;2023-03-03T06:49:16;-1.28;99.99
69335;SHT31;56477;52.742;15.242;2023-03-03T06:51:42;-1.25;99.99
69335;SHT31;56477;52.742;15.242;2023-03-03T06:54:19;-1.31;99.99
69335;SHT31;56477;52.742;15.242;2023-03-03T06:56:47;-1.34;99.99
69335;SHT31;56477;52.742;15.242;2023-03-03T06:59:15;-1.27;99.99
69335;SHT31;56477;52.742;15.242;2023-03-03T07:01:42;-1.28;99.99
69335;SHT31;56477;52.742;15.242;2023-03-03T07:04:26;-1.22;99.99
69335;SHT31;56477;52.742;15.242;2023-03-03T07:06:56;-1.17;99.99
69335;SHT31;56477;52.742;15.242;2023-03-03T07:09:26;-1.32;99.99
69335;SHT31;56477;52.742;15.242;2023-03-03T07:11:56;-1.35;99.99
69335;SHT31;56477;52.742;15.242;2023-03-03T07:14:25;-1.40;99.99
69335;SHT31;56477;52.742;15.242;2023-03-03T07:16:57;-1.45;99.99
69335;SHT31;56477;52.742;15.242;2023-03-03T07:19:33;-1.37;99.99
69335;SHT31;56477;52.742;15.242;2023-03-03T07:22:21;-1.38;99.99
69335;SHT31;56477;52.742;15.242;2023-03-03T07:24:53;-1.28;99.99
69335;SHT31;56477;52.742;15.242;2023-03-03T07:27:27;-1.35;99.99
69335;SHT31;56477;52.742;15.242;2023-03-03T07:32:49;-1.30;99.99
69335;SHT31;56477;52.742;15.242;2023-03-03T07:38:22;-1.28;99.99
69335;SHT31;56477;52.742;15.242;2023-03-03T07:40:52;-1.27;99.99
69335;SHT31;56477;52.742;15.242;2023-03-03T07:48:41;-1.47;99.99
69335;SHT31;56477;52.742;15.242;2023-03-03T07:51:26;-1.48;99.99
69335;SHT31;56477;52.742;15.242;2023-03-03T07:53:57;-1.52;99.99
69335;SHT31;56477;52.742;15.242;2023-03-03T07:56:33;-1.61;99.99
69335;SHT31;56477;52.742;15.242;2023-03-03T07:59:02;-1.59;99.99
69335;SHT31;56477;52.742;15.242;2023-03-03T08:01:40;-1.61;99.99
69335;SHT31;56477;52.742;15.242;2023-03-03T08:06:59;-1.47;99.99
69335;SHT31;56477;52.742;15.242;2023-03-03T08:09:34;-1.52;99.84
69335;SHT31;56477;52.742;15.242;2023-03-03T08:14:37;-1.35;99.89
69335;SHT31;56477;52.742;15.242;2023-03-03T08:17:22;-1.40;99.70
69335;SHT31;56477;52.742;15.242;2023-03-03T08:19:50;-1.41;99.98
69335;SHT31;56477;52.742;15.242;2023-03-03T08:22:34;-1.35;99.99
69335;SHT31;56477;52.742;15.242;2023-03-03T08:25:01;-1.28;99.99
69335;SHT31;56477;52.742;15.242;2023-03-03T08:27:27;-1.22;99.96
69335;SHT31;56477;52.742;15.242;2023-03-03T08:29:53;-1.12;99.93
69335;SHT31;56477;52.742;15.242;2023-03-03T08:32:19;-1.08;99.75
69335;SHT31;56477;52.742;15.242;2023-03-03T08:34:45;-1.11;99.76
69335;SHT31;56477;52.742;15.242;2023-03-03T08:37:11;-1.07;99.90
69335;SHT31;56477;52.742;15.242;2023-03-03T08:39:37;-1.00;99.99
69335;SHT31;56477;52.742;15.242;2023-03-03T08:42:04;-0.91;99.99
69335;SHT31;56477;52.742;15.242;2023-03-03T08:44:29;-1.00;99.76
69335;SHT31;56477;52.742;15.242;2023-03-03T08:46:56;-0.97;99.93
69335;SHT31;56477;52.742;15.242;2023-03-03T08:49:21;-0.99;99.93
69335;SHT31;56477;52.742;15.242;2023-03-03T08:51:49;-1.01;99.86
69335;SHT31;56477;52.742;15.242;2023-03-03T08:54:14;-1.00;99.99
69335;SHT31;56477;52.742;15.242;2023-03-03T08:56:41;-0.97;99.92
69335;SHT31;56477;52.742;15.242;2023-03-03T08:59:06;-0.89;99.99
69335;SHT31;56477;52.742;15.242;2023-03-03T09:01:33;-0.83;99.99
69335;SHT31;56477;52.742;15.242;2023-03-03T09:03:59;-0.77;99.86
69335;SHT31;56477;52.742;15.242;2023-03-03T09:06:26;-0.80;99.86
69335;SHT31;56477;52.742;15.242;2023-03-03T09:08:52;-0.82;99.70
69335;SHT31;56477;52.742;15.242;2023-03-03T09:11:24;-0.80;99.65
69335;SHT31;56477;52.742;15.242;2023-03-03T09:13:58;-0.86;99.14
69335;SHT31;56477;52.742;15.242;2023-03-03T09:16:37;-0.82;98.97
69335;SHT31;56477;52.742;15.242;2023-03-03T09:21:45;-0.76;99.15
69335;SHT31;56477;52.742;15.242;2023-03-03T09:24:31;-0.87;98.77
69335;SHT31;56477;52.742;15.242;2023-03-03T09:27:00;-0.77;98.79
69335;SHT31;56477;52.742;15.242;2023-03-03T09:29:29;-0.86;98.50
69335;SHT31;56477;52.742;15.242;2023-03-03T09:31:57;-0.77;98.30
69335;SHT31;56477;52.742;15.242;2023-03-03T09:39:49;-0.70;98.84
69335;SHT31;56477;52.742;15.242;2023-03-03T09:53:28;-0.62;98.64
69335;SHT31;56477;52.742;15.242;2023-03-03T10:22:55;-0.15;96.49
69335;SHT31;56477;52.742;15.242;2023-03-03T10:30:58;-0.04;96.76
69335;SHT31;56477;52.742;15.242;2023-03-03T10:33:41;-0.10;96.67
69335;SHT31;56477;52.742;15.242;2023-03-03T10:44:15;-0.25;97.91
69335;SHT31;56477;52.742;15.242;2023-03-03T10:50:35;-0.12;97.27
69335;SHT31;56477;52.742;15.242;2023-03-03T11:12:22;0.23;96.47
69335;SHT31;56477;52.742;15.242;2023-03-03T11:25:33;0.09;95.98
69335;SHT31;56477;52.742;15.242;2023-03-03T11:33:06;0.18;95.81
69335;SHT31;56477;52.742;15.242;2023-03-03T11:35:52;0.21;96.00
69335;SHT31;56477;52.742;15.242;2023-03-03T11:41:26;0.28;95.64
69335;SHT31;56477;52.742;15.242;2023-03-03T11:43:58;0.13;96.03
69335;SHT31;56477;52.742;15.242;2023-03-03T11:46:37;0.21;96.23
69335;SHT31;56477;52.742;15.242;2023-03-03T11:49:07;0.26;96.13
69335;SHT31;56477;52.742;15.242;2023-03-03T11:52:10;0.21;95.91
69335;SHT31;56477;52.742;15.242;2023-03-03T12:06:20;0.27;95.69
69335;SHT31;56477;52.742;15.242;2023-03-03T12:12:14;0.31;95.81
69335;SHT31;56477;52.742;15.242;2023-03-03T12:17:29;0.47;95.78
69335;SHT31;56477;52.742;15.242;2023-03-03T12:20:12;0.53;95.57
69335;SHT31;56477;52.742;15.242;2023-03-03T12:25:42;0.36;95.80
69335;SHT31;56477;52.742;15.242;2023-03-03T12:28:40;0.23;96.35
69335;SHT31;56477;52.742;15.242;2023-03-03T12:39:46;0.41;95.68
69335;SHT31;56477;52.742;15.242;2023-03-03T12:42:42;0.37;95.69
69335;SHT31;56477;52.742;15.242;2023-03-03T12:45:27;0.36;95.95
69335;SHT31;56477;52.742;15.242;2023-03-03T12:50:47;0.41;96.50
69335;SHT31;56477;52.742;15.242;2023-03-03T12:53:29;0.50;96.18
69335;SHT31;56477;52.742;15.242;2023-03-03T12:56:09;0.47;96.04
69335;SHT31;56477;52.742;15.242;2023-03-03T13:06:47;0.65;95.78
69335;SHT31;56477;52.742;15.242;2023-03-03T13:12:05;0.78;95.54
69335;SHT31;56477;52.742;15.242;2023-03-03T13:19:57;0.64;95.93
69335;SHT31;56477;52.742;15.242;2023-03-03T13:25:47;0.67;95.89
69335;SHT31;56477;52.742;15.242;2023-03-03T13:28:20;0.65;95.75
69335;SHT31;56477;52.742;15.242;2023-03-03T13:30:49;0.74;96.06
69335;SHT31;56477;52.742;15.242;2023-03-03T13:33:25;0.76;95.82
69335;SHT31;56477;52.742;15.242;2023-03-03T13:35:59;0.76;95.70
69335;SHT31;56477;52.742;15.242;2023-03-03T13:38:30;0.69;95.65
69335;SHT31;56477;52.742;15.242;2023-03-03T13:41:08;0.75;96.03
69335;SHT31;56477;52.742;15.242;2023-03-03T13:49:22;0.93;95.61
69335;SHT31;56477;52.742;15.242;2023-03-03T13:52:00;0.85;95.47
69335;SHT31;56477;52.742;15.242;2023-03-03T14:00:34;0.97;95.58
69335;SHT31;56477;52.742;15.242;2023-03-03T14:05:51;1.06;94.80
69335;SHT31;56477;52.742;15.242;2023-03-03T14:08:27;1.05;95.01
69335;SHT31;56477;52.742;15.242;2023-03-03T14:16:51;1.09;94.87
69335;SHT31;56477;52.742;15.242;2023-03-03T14:19:31;1.12;94.93
69335;SHT31;56477;52.742;15.242;2023-03-03T14:25:00;1.07;94.62
69335;SHT31;56477;52.742;15.242;2023-03-03T14:27:34;1.12;94.68
69335;SHT31;56477;52.742;15.242;2023-03-03T14:30:24;1.07;94.67
69335;SHT31;56477;52.742;15.242;2023-03-03T14:33:01;1.12;94.62
69335;SHT31;56477;52.742;15.242;2023-03-03T14:35:32;1.16;94.47
69335;SHT31;56477;52.742;15.242;2023-03-03T14:40:36;1.33;94.44
69335;SHT31;56477;52.742;15.242;2023-03-03T14:43:25;1.43;94.13
69335;SHT31;56477;52.742;15.242;2023-03-03T14:45:52;1.29;94.28
69335;SHT31;56477;52.742;15.242;2023-03-03T14:48:21;1.33;94.32
69335;SHT31;56477;52.742;15.242;2023-03-03T14:50:55;1.37;94.40
69335;SHT31;56477;52.742;15.242;2023-03-03T14:53:35;1.33;94.50
69335;SHT31;56477;52.742;15.242;2023-03-03T14:59:25;1.27;94.76
69335;SHT31;56477;52.742;15.242;2023-03-03T15:04:26;1.42;94.49
69335;SHT31;56477;52.742;15.242;2023-03-03T15:06:54;1.42;94.55
69335;SHT31;56477;52.742;15.242;2023-03-03T15:11:54;1.46;94.39
69335;SHT31;56477;52.742;15.242;2023-03-03T15:16:57;1.48;94.21
69335;SHT31;56477;52.742;15.242;2023-03-03T15:22:47;1.58;94.38
69335;SHT31;56477;52.742;15.242;2023-03-03T15:27:50;1.60;94.56
69335;SHT31;56477;52.742;15.242;2023-03-03T15:30:38;1.60;94.26
69335;SHT31;56477;52.742;15.242;2023-03-03T15:33:22;1.65;94.44
69335;SHT31;56477;52.742;15.242;2023-03-03T15:36:08;1.65;94.58
69335;SHT31;56477;52.742;15.242;2023-03-03T15:39:08;1.58;94.71
69335;SHT31;56477;52.742;15.242;2023-03-03T15:44:25;1.63;94.72
69335;SHT31;56477;52.742;15.242;2023-03-03T15:52:32;1.65;94.49
69335;SHT31;56477;52.742;15.242;2023-03-03T15:57:56;1.71;94.32
69335;SHT31;56477;52.742;15.242;2023-03-03T16:03:20;1.73;94.23
69335;SHT31;56477;52.742;15.242;2023-03-03T16:05:53;1.70;94.34
69335;SHT31;56477;52.742;15.242;2023-03-03T16:08:40;1.73;94.15
69335;SHT31;56477;52.742;15.242;2023-03-03T16:11:20;1.71;94.25
69335;SHT31;56477;52.742;15.242;2023-03-03T16:16:41;1.67;94.23
69335;SHT31;56477;52.742;15.242;2023-03-03T16:24:27;1.64;94.38
69335;SHT31;56477;52.742;15.242;2023-03-03T16:30:05;1.64;94.42
69335;SHT31;56477;52.742;15.242;2023-03-03T16:32:50;1.60;94.56
69335;SHT31;56477;52.742;15.242;2023-03-03T16:35:38;1.60;94.60
69335;SHT31;56477;52.742;15.242;2023-03-03T16:41:14;1.61;94.49
69335;SHT31;56477;52.742;15.242;2023-03-03T16:44:19;1.60;94.55
69335;SHT31;56477;52.742;15.242;2023-03-03T16:46:48;1.57;94.66
69335;SHT31;56477;52.742;15.242;2023-03-03T16:49:23;1.54;94.70
69335;SHT31;56477;52.742;15.242;2023-03-03T16:57:02;1.50;94.80
69335;SHT31;56477;52.742;15.242;2023-03-03T17:04:57;1.42;94.74
69335;SHT31;56477;52.742;15.242;2023-03-03T17:07:51;1.44;94.74
69335;SHT31;56477;52.742;15.242;2023-03-03T17:10:28;1.43;94.84
69335;SHT31;56477;52.742;15.242;2023-03-03T17:15:49;1.44;94.85
69335;SHT31;56477;52.742;15.242;2023-03-03T17:24:10;1.43;94.90
69335;SHT31;56477;52.742;15.242;2023-03-03T17:35:28;1.44;95.13
69335;SHT31;56477;52.742;15.242;2023-03-03T17:38:19;1.48;94.94
69335;SHT31;56477;52.742;15.242;2023-03-03T17:41:03;1.43;95.15
69335;SHT31;56477;52.742;15.242;2023-03-03T17:46:02;1.42;94.87
69335;SHT31;56477;52.742;15.242;2023-03-03T17:57:37;1.33;94.79
69335;SHT31;56477;52.742;15.242;2023-03-03T18:00:26;1.33;94.72
69335;SHT31;56477;52.742;15.242;2023-03-03T18:09:15;1.30;94.69
69335;SHT31;56477;52.742;15.242;2023-03-03T18:17:26;1.27;94.43
69335;SHT31;56477;52.742;15.242;2023-03-03T18:22:55;1.29;94.46
69335;SHT31;56477;52.742;15.242;2023-03-03T18:25:50;1.30;94.32
69335;SHT31;56477;52.742;15.242;2023-03-03T18:28:19;1.36;94.24
69335;SHT31;56477;52.742;15.242;2023-03-03T18:31:01;1.36;94.32
69335;SHT31;56477;52.742;15.242;2023-03-03T18:38:57;1.39;94.14
69335;SHT31;56477;52.742;15.242;2023-03-03T18:41:30;1.39;94.20
69335;SHT31;56477;52.742;15.242;2023-03-03T18:44:00;1.40;94.21
69335;SHT31;56477;52.742;15.242;2023-03-03T18:49:03;1.39;94.25
69335;SHT31;56477;52.742;15.242;2023-03-03T19:04:53;1.51;93.84
69335;SHT31;56477;52.742;15.242;2023-03-03T19:07:28;1.55;93.89
69335;SHT31;56477;52.742;15.242;2023-03-03T19:10:00;1.58;93.77
69335;SHT31;56477;52.742;15.242;2023-03-03T19:12:57;1.61;93.61
69335;SHT31;56477;52.742;15.242;2023-03-03T19:15:47;1.61;93.61
69335;SHT31;56477;52.742;15.242;2023-03-03T19:18:25;1.65;93.63
69335;SHT31;56477;52.742;15.242;2023-03-03T19:23:51;1.73;93.51
69335;SHT31;56477;52.742;15.242;2023-03-03T19:42:37;1.85;93.32
69335;SHT31;56477;52.742;15.242;2023-03-03T19:45:27;1.88;93.35
69335;SHT31;56477;52.742;15.242;2023-03-03T19:50:31;1.92;93.25
69335;SHT31;56477;52.742;15.242;2023-03-03T19:53:17;1.89;93.19
69335;SHT31;56477;52.742;15.242;2023-03-03T19:56:09;1.91;93.23
69335;SHT31;56477;52.742;15.242;2023-03-03T20:04:11;1.91;93.38
69335;SHT31;56477;52.742;15.242;2023-03-03T20:14:44;1.95;93.34
69335;SHT31;56477;52.742;15.242;2023-03-03T20:17:23;1.92;93.44
69335;SHT31;56477;52.742;15.242;2023-03-03T20:36:30;1.74;94.67
69335;SHT31;56477;52.742;15.242;2023-03-03T20:42:05;1.74;94.98
69335;SHT31;56477;52.742;15.242;2023-03-03T20:47:29;1.71;95.06
69335;SHT31;56477;52.742;15.242;2023-03-03T20:50:14;1.71;94.99
69335;SHT31;56477;52.742;15.242;2023-03-03T20:53:00;1.73;94.86
69335;SHT31;56477;52.742;15.242;2023-03-03T21:04:27;1.73;94.82
69335;SHT31;56477;52.742;15.242;2023-03-03T21:06:55;1.75;94.72
69335;SHT31;56477;52.742;15.242;2023-03-03T21:09:30;1.77;94.58
69335;SHT31;56477;52.742;15.242;2023-03-03T21:11:59;1.79;94.54
69335;SHT31;56477;52.742;15.242;2023-03-03T21:14:32;1.81;94.41
69335;SHT31;56477;52.742;15.242;2023-03-03T21:16:59;1.82;94.30
69335;SHT31;56477;52.742;15.242;2023-03-03T21:19:29;1.84;94.24
69335;SHT31;56477;52.742;15.242;2023-03-03T21:21:56;1.85;94.07
69335;SHT31;56477;52.742;15.242;2023-03-03T21:24:50;1.86;94.18
69335;SHT31;56477;52.742;15.242;2023-03-03T21:27:42;1.85;94.06
69335;SHT31;56477;52.742;15.242;2023-03-03T21:30:10;1.85;94.18
69335;SHT31;56477;52.742;15.242;2023-03-03T21:32:44;1.82;94.33
69335;SHT31;56477;52.742;15.242;2023-03-03T21:35:20;1.78;94.47
69335;SHT31;56477;52.742;15.242;2023-03-03T21:37:54;1.78;94.58
69335;SHT31;56477;52.742;15.242;2023-03-03T21:40:24;1.75;94.74
69335;SHT31;56477;52.742;15.242;2023-03-03T21:42:52;1.73;94.94
69335;SHT31;56477;52.742;15.242;2023-03-03T21:45:19;1.71;94.84
69335;SHT31;56477;52.742;15.242;2023-03-03T21:47:46;1.75;94.83
69335;SHT31;56477;52.742;15.242;2023-03-03T21:50:13;1.75;94.79
69335;SHT31;56477;52.742;15.242;2023-03-03T21:52:39;1.77;94.75
69335;SHT31;56477;52.742;15.242;2023-03-03T21:55:06;1.75;94.78
69335;SHT31;56477;52.742;15.242;2023-03-03T21:57:32;1.79;94.65
69335;SHT31;56477;52.742;15.242;2023-03-03T22:00:00;1.79;94.65
69335;SHT31;56477;52.742;15.242;2023-03-03T22:02:26;1.85;94.36
69335;SHT31;56477;52.742;15.242;2023-03-03T22:04:53;1.86;94.10
69335;SHT31;56477;52.742;15.242;2023-03-03T22:07:19;1.95;93.59
69335;SHT31;56477;52.742;15.242;2023-03-03T22:09:45;1.97;93.50
69335;SHT31;56477;52.742;15.242;2023-03-03T22:12:11;2.01;93.21
69335;SHT31;56477;52.742;15.242;2023-03-03T22:14:37;2.04;93.10
69335;SHT31;56477;52.742;15.242;2023-03-03T22:17:02;2.04;93.15
69335;SHT31;56477;52.742;15.242;2023-03-03T22:19:29;2.08;92.88
69335;SHT31;56477;52.742;15.242;2023-03-03T22:21:55;2.06;92.96